Time;durP1;ratioP1;P1;durP2;ratioP2;P2;SDS_P1;SDS_P2;PMS_P1;PMS_P2;Temp;Humidity;BMP_temperature;BMP_pressure;BME280_temperature;BME280_humidity;BME280_pressure;Samples;Min_cycle;Max_cycle;Signal;HPM_P1;HPM_P2
2022/11/04 00:01:21;;;;;;;;;;;;;;;20.98;61.98;99957.28;5065796;28;2894;-62
2022/11/04 00:03:48;;;;;;;;;;;;;;;20.95;61.80;99958.63;5076174;28;2990;-61
2022/11/04 00:06:24;;;;;;;;;;;;;;;20.96;61.82;99957.22;5066244;28;2898;-62
2022/11/04 00:08:54;;;;;;;;;;;;;;;21.03;61.43;99964.63;5065866;28;2984;-61
2022/11/04 00:14:06;;;;;;;;;;;;;;;20.99;61.90;99958.75;5059413;28;2906;-62
2022/11/04 00:19:17;;;;;;;;;;;;;;;20.99;62.10;99958.75;5069944;28;2747;-62
2022/11/04 00:29:55;;;;;;;;;;;;;;;20.98;62.04;99948.63;5069896;28;1580;-62
2022/11/04 00:35:06;;;;;;;;;;;;;;;20.96;62.04;99942.81;5067454;28;1946;-61
2022/11/04 00:37:36;;;;;;;;;;;;;;;20.94;62.05;99946.41;5067350;28;1771;-61
2022/11/04 00:40:03;;;;;;;;;;;;;;;20.93;62.10;99945.63;5070495;28;1723;-61
2022/11/04 00:42:29;;;;;;;;;;;;;;;20.93;62.15;99951.41;5068138;28;1877;-61
2022/11/04 00:44:55;;;;;;;;;;;;;;;20.92;62.16;99944.19;5070453;28;1656;-61
2022/11/04 00:47:22;;;;;;;;;;;;;;;20.92;62.35;99943.44;5068231;28;1624;-62
2022/11/04 00:49:48;;;;;;;;;;;;;;;20.92;62.24;99932.66;5067327;28;1620;-61
2022/11/04 00:52:15;;;;;;;;;;;;;;;20.91;62.12;99919.69;5070760;28;1612;-61
2022/11/04 00:54:41;;;;;;;;;;;;;;;20.92;62.09;99920.44;5068999;28;1977;-61
2022/11/04 00:57:08;;;;;;;;;;;;;;;20.91;62.25;99913.94;5068459;28;1726;-61
2022/11/04 00:59:34;;;;;;;;;;;;;;;20.91;62.20;99919.69;5069232;28;1713;-61
2022/11/04 01:02:00;;;;;;;;;;;;;;;20.89;62.21;99913.88;5067394;28;1861;-61
2022/11/04 01:04:27;;;;;;;;;;;;;;;20.89;62.31;99913.88;5070415;28;1838;-61
2022/11/04 01:06:53;;;;;;;;;;;;;;;20.89;62.21;99908.13;5066877;28;2016;-61
2022/11/04 01:09:19;;;;;;;;;;;;;;;20.91;62.20;99908.19;5071828;28;1663;-62
2022/11/04 01:11:46;;;;;;;;;;;;;;;20.92;62.17;99912.53;5068312;28;1882;-61
2022/11/04 01:14:12;;;;;;;;;;;;;;;20.91;62.20;99919.69;5063885;28;1662;-62
2022/11/04 01:16:38;;;;;;;;;;;;;;;20.91;62.37;99924.69;5069790;28;1977;-61
2022/11/04 01:19:05;;;;;;;;;;;;;;;20.90;62.34;99914.63;5070003;28;1659;-61
2022/11/04 01:21:31;;;;;;;;;;;;;;;20.88;62.23;99911.69;5069478;28;1719;-61
2022/11/04 01:23:58;;;;;;;;;;;;;;;20.88;62.42;99914.56;5068033;28;1655;-61
2022/11/04 01:26:24;;;;;;;;;;;;;;;20.87;62.49;99916.69;5067951;28;1749;-61
2022/11/04 01:28:51;;;;;;;;;;;;;;;20.85;62.25;99918.78;5070404;28;1877;-61
2022/11/04 01:31:20;;;;;;;;;;;;;;;20.86;62.23;99926.72;5064609;28;1716;-61
2022/11/04 01:33:46;;;;;;;;;;;;;;;20.85;62.48;99915.91;5066622;28;1687;-61
2022/11/04 01:36:13;;;;;;;;;;;;;;;20.85;62.19;99908.00;5069747;28;1922;-61
2022/11/04 01:38:39;;;;;;;;;;;;;;;20.86;62.06;99918.09;5067417;28;1846;-61
2022/11/04 01:41:06;;;;;;;;;;;;;;;20.85;62.33;99913.75;5070721;28;1778;-61
2022/11/04 01:43:42;;;;;;;;;;;;;;;20.87;61.98;99908.06;5066920;28;1905;-61
2022/11/04 01:46:08;;;;;;;;;;;;;;;20.84;62.20;99903.66;5067906;28;1655;-61
2022/11/04 01:48:34;;;;;;;;;;;;;;;20.83;62.29;99907.94;5066577;28;1846;-61
2022/11/04 01:51:01;;;;;;;;;;;;;;;20.84;62.25;99915.16;5067649;28;1774;-61
2022/11/04 01:53:28;;;;;;;;;;;;;;;20.83;62.21;99907.94;5066402;28;1898;-61
2022/11/04 01:55:55;;;;;;;;;;;;;;;20.82;62.31;99909.38;5068619;28;1910;-62
2022/11/04 01:58:22;;;;;;;;;;;;;;;20.84;62.17;99909.41;5065254;28;1729;-62
2022/11/04 02:00:48;;;;;;;;;;;;;;;20.81;62.11;99899.25;5066413;28;1931;-61
2022/11/04 02:03:16;;;;;;;;;;;;;;;20.82;62.08;99900.72;5067208;28;1808;-61
2022/11/04 02:05:42;;;;;;;;;;;;;;;20.82;62.10;99900.72;5065576;28;1616;-61
2022/11/04 02:08:08;;;;;;;;;;;;;;;20.81;62.08;99896.38;5064355;28;1659;-61
2022/11/04 02:10:36;;;;;;;;;;;;;;;20.82;62.22;99886.34;5065559;28;1659;-61
2022/11/04 02:13:02;;;;;;;;;;;;;;;20.81;62.24;99890.63;5066706;28;1802;-61
2022/11/04 02:15:35;;;;;;;;;;;;;;;20.80;61.99;99886.28;5064442;28;1914;-61
2022/11/04 02:18:04;;;;;;;;;;;;;;;20.81;62.14;99887.75;5063044;28;1695;-61
2022/11/04 02:20:43;;;;;;;;;;;;;;;20.79;62.20;99896.31;5059139;28;1794;-61
2022/11/04 02:23:18;;;;;;;;;;;;;;;20.79;62.30;99889.84;5065632;28;1739;-61
2022/11/04 02:26:05;;;;;;;;;;;;;;;20.78;62.07;99880.47;5065399;28;1790;-61
2022/11/04 02:28:43;;;;;;;;;;;;;;;20.79;61.90;99884.81;5060713;28;1644;-61
2022/11/04 02:31:25;;;;;;;;;;;;;;;20.79;62.10;99870.41;5060395;28;1663;-61
2022/11/04 02:33:52;;;;;;;;;;;;;;;20.79;61.86;99866.81;5064524;28;1687;-61
2022/11/04 02:36:21;;;;;;;;;;;;;;;20.79;62.21;99855.31;5063392;28;2128;-61
2022/11/04 02:38:50;;;;;;;;;;;;;;;20.77;62.12;99855.97;5064116;28;1615;-61
2022/11/04 02:41:20;;;;;;;;;;;;;;;20.77;61.86;99847.34;5066896;28;1822;-61
2022/11/04 02:43:49;;;;;;;;;;;;;;;20.78;61.87;99853.84;5061765;28;2133;-60
2022/11/04 02:46:21;;;;;;;;;;;;;;;20.78;62.04;99839.47;5066927;28;1695;-61
2022/11/04 02:48:52;;;;;;;;;;;;;;;20.76;61.99;99845.88;5066541;28;1945;-61
2022/11/04 02:51:24;;;;;;;;;;;;;;;20.77;62.10;99863.88;5066897;28;2003;-61
2022/11/04 02:54:09;;;;;;;;;;;;;;;20.78;61.99;99854.56;5067822;28;1759;-61
2022/11/04 02:56:40;;;;;;;;;;;;;;;20.76;62.19;99859.53;5064148;28;1968;-61
2022/11/04 02:59:07;;;;;;;;;;;;;;;20.76;61.82;99851.63;5067177;28;1639;-60
2022/11/04 03:01:34;;;;;;;;;;;;;;;20.76;61.88;99845.88;5063001;28;1929;-61
2022/11/04 03:04:02;;;;;;;;;;;;;;;20.77;61.95;99847.34;5066510;28;2008;-61
2022/11/04 03:06:28;;;;;;;;;;;;;;;20.75;61.82;99838.66;5067193;28;1971;-61
2022/11/04 03:08:54;;;;;;;;;;;;;;;20.74;62.14;99836.47;5066770;28;1684;-61
2022/11/04 03:11:22;;;;;;;;;;;;;;;20.76;61.80;99834.38;5066723;28;1593;-61
2022/11/04 03:13:56;;;;;;;;;;;;;;;20.74;61.78;99834.31;5067537;28;1863;-61
2022/11/04 03:16:25;;;;;;;;;;;;;;;20.75;61.86;99838.66;5065545;28;1975;-61
2022/11/04 03:19:06;;;;;;;;;;;;;;;20.72;61.91;99851.53;5064113;28;1924;-61
2022/11/04 03:21:34;;;;;;;;;;;;;;;20.74;62.01;99874.59;5066937;28;1846;-61
2022/11/04 03:24:00;;;;;;;;;;;;;;;20.74;61.97;99883.22;5065577;28;1651;-61
2022/11/04 03:26:45;;;;;;;;;;;;;;;20.73;61.95;99876.00;5065202;28;1654;-61
2022/11/04 03:29:12;;;;;;;;;;;;;;;20.73;61.87;99892.53;5065198;28;1667;-61
2022/11/04 03:31:42;;;;;;;;;;;;;;;20.73;61.95;99881.75;5066265;28;1690;-61
2022/11/04 03:34:09;;;;;;;;;;;;;;;20.75;61.99;99890.44;5064945;28;1648;-61
2022/11/04 03:36:35;;;;;;;;;;;;;;;20.75;61.81;99884.69;5062046;28;1914;-61
2022/11/04 03:39:01;;;;;;;;;;;;;;;20.75;61.58;99883.94;5066679;28;1827;-61
2022/11/04 03:41:33;;;;;;;;;;;;;;;20.75;61.86;99884.69;5069128;28;1866;-61
2022/11/04 03:43:59;;;;;;;;;;;;;;;20.77;61.82;99890.50;5066801;28;1786;-61
2022/11/04 03:46:26;;;;;;;;;;;;;;;20.80;61.68;99889.16;5067444;28;1878;-61
2022/11/04 03:48:52;;;;;;;;;;;;;;;20.81;61.53;99887.00;5067207;28;1672;-61
2022/11/04 03:51:18;;;;;;;;;;;;;;;20.82;61.49;99882.72;5064485;28;1668;-61
2022/11/04 03:53:45;;;;;;;;;;;;;;;20.80;61.79;99883.41;5069007;28;1690;-61
2022/11/04 03:56:30;;;;;;;;;;;;;;;20.81;61.72;99881.25;5064547;28;1981;-61
2022/11/04 03:58:57;;;;;;;;;;;;;;;20.82;61.47;99889.22;5069921;28;1798;-61
2022/11/04 04:01:35;;;;;;;;;;;;;;;20.85;61.34;99887.88;5063280;28;1873;-61
2022/11/04 04:04:09;;;;;;;;;;;;;;;20.86;61.40;99892.19;5071066;28;1722;-61
2022/11/04 04:06:35;;;;;;;;;;;;;;;20.88;61.50;99898.00;5072442;28;1677;-61
2022/11/04 04:09:04;;;;;;;;;;;;;;;20.88;61.34;99891.53;5069222;28;1779;-61
2022/11/04 04:11:49;;;;;;;;;;;;;;;20.91;61.44;99893.06;5072485;28;1697;-61
2022/11/04 04:14:40;;;;;;;;;;;;;;;20.91;61.29;99890.94;5067449;28;1842;-60
2022/11/04 04:17:20;;;;;;;;;;;;;;;20.90;61.19;99895.19;5072751;28;1942;-61
2022/11/04 04:19:53;;;;;;;;;;;;;;;20.92;61.40;99883.03;5073353;28;1658;-61
2022/11/04 04:22:21;;;;;;;;;;;;;;;20.93;61.11;99888.09;5073347;28;1659;-61
2022/11/04 04:27:32;;;;;;;;;;;;;;;20.94;61.33;99883.09;5073774;28;1920;-61
2022/11/04 04:30:00;;;;;;;;;;;;;;;20.93;61.12;99876.56;5072471;28;1667;-61
2022/11/04 04:32:27;;;;;;;;;;;;;;;20.93;61.15;99876.56;5073709;28;1671;-61
2022/11/04 04:35:40;;;;;;;;;;;;;;;20.91;61.47;99890.94;5073166;28;1729;-61
2022/11/04 04:37:39;;;;;;;;;;;;;;;20.93;61.15;99882.31;5074974;28;2292;-61
2022/11/04 04:45:37;;;;;;;;;;;;;;;20.96;61.21;99873.75;5072652;28;1761;-61
2022/11/04 04:48:03;;;;;;;;;;;;;;;20.97;61.09;99883.88;5073638;28;1631;-61
2022/11/04 04:50:30;;;;;;;;;;;;;;;20.98;61.18;99888.97;5073479;28;1640;-61
2022/11/04 04:52:56;;;;;;;;;;;;;;;20.98;61.07;99883.22;5071844;28;2166;-61
2022/11/04 04:55:23;;;;;;;;;;;;;;;21.00;61.12;99888.25;5075175;28;1759;-61
2022/11/04 04:57:49;;;;;;;;;;;;;;;21.00;60.91;99891.88;5076559;28;1913;-61
2022/11/04 05:00:16;;;;;;;;;;;;;;;20.99;61.05;99886.81;5074236;28;1903;-61
2022/11/04 05:02:42;;;;;;;;;;;;;;;21.00;61.04;99888.25;5076368;28;1778;-61
2022/11/04 05:05:09;;;;;;;;;;;;;;;20.99;61.28;99890.41;5077288;28;1553;-61
2022/11/04 05:07:36;;;;;;;;;;;;;;;20.98;61.36;99894.72;5074222;28;1928;-61
2022/11/04 05:10:02;;;;;;;;;;;;;;;20.98;61.34;99888.97;5075883;28;1696;-61
2022/11/04 05:15:13;;;;;;;;;;;;;;;20.99;61.11;99890.41;5075933;28;1817;-61
2022/11/04 05:17:39;;;;;;;;;;;;;;;20.99;61.02;99892.56;5075207;28;1914;-61
2022/11/04 05:20:06;;;;;;;;;;;;;;;20.99;61.10;99889.69;5074482;28;1611;-61
2022/11/04 05:22:32;;;;;;;;;;;;;;;21.00;61.31;99902.66;5076937;28;1702;-61
2022/11/04 05:24:59;;;;;;;;;;;;;;;21.01;61.06;99899.09;5075925;28;1739;-61
2022/11/04 05:27:25;;;;;;;;;;;;;;;21.03;61.12;99907.06;5077214;28;1758;-61
2022/11/04 05:29:51;;;;;;;;;;;;;;;21.04;61.03;99900.63;5077514;28;1627;-61
2022/11/04 05:32:18;;;;;;;;;;;;;;;21.05;61.10;99921.50;5076113;28;1712;-61
2022/11/04 05:34:44;;;;;;;;;;;;;;;21.04;60.94;99920.03;5076167;28;1783;-61
2022/11/04 05:37:10;;;;;;;;;;;;;;;21.05;61.02;99922.25;5078139;28;1909;-61
2022/11/04 05:39:37;;;;;;;;;;;;;;;21.05;60.92;99927.25;5073884;28;1575;-61
2022/11/04 05:42:03;;;;;;;;;;;;;;;21.04;60.92;99922.94;5077869;28;1585;-60
2022/11/04 05:44:29;;;;;;;;;;;;;;;21.02;61.30;99931.50;5075579;28;1787;-61
2022/11/04 05:46:56;;;;;;;;;;;;;;;21.02;61.17;99931.50;5074105;28;1608;-61
2022/11/04 05:49:22;;;;;;;;;;;;;;;21.02;61.33;99925.75;5078867;28;1663;-61
2022/11/04 05:51:48;;;;;;;;;;;;;;;21.03;61.27;99936.59;5080928;28;1635;-61
2022/11/04 05:54:15;;;;;;;;;;;;;;;21.04;61.05;99943.06;5082959;28;1636;-61
2022/11/04 05:56:41;;;;;;;;;;;;;;;21.04;61.05;99938.03;5077870;28;1906;-61
2022/11/04 05:59:07;;;;;;;;;;;;;;;21.06;61.15;99943.84;5066867;28;1623;-61
2022/11/04 06:01:34;;;;;;;;;;;;;;;21.08;61.16;99951.81;5066091;28;1967;-61
2022/11/04 06:04:01;;;;;;;;;;;;;;;21.09;60.95;99938.91;5064684;28;1754;-61
2022/11/04 06:06:28;;;;;;;;;;;;;;;21.07;61.01;99928.06;5066764;28;1755;-61
2022/11/04 06:08:55;;;;;;;;;;;;;;;21.08;60.78;99937.44;5063822;28;1540;-60
2022/11/04 06:11:21;;;;;;;;;;;;;;;21.11;60.97;99953.34;5066889;28;1580;-60
2022/11/04 06:13:48;;;;;;;;;;;;;;;21.08;61.14;99966.94;5065719;28;1748;-61
2022/11/04 06:16:14;;;;;;;;;;;;;;;21.07;61.28;99971.25;5061798;28;1946;-60
2022/11/04 06:18:40;;;;;;;;;;;;;;;21.08;60.91;99966.94;5064527;28;1688;-61
2022/11/04 06:21:18;;;;;;;;;;;;;;;21.09;61.13;99974.16;5062205;28;1621;-61
2022/11/04 06:23:45;;;;;;;;;;;;;;;21.07;60.91;99961.84;5063016;28;1966;-61
2022/11/04 06:26:11;;;;;;;;;;;;;;;21.06;61.24;99966.16;5061336;28;1489;-60
2022/11/04 06:28:38;;;;;;;;;;;;;;;21.09;61.18;99973.44;5063833;28;1807;-61
2022/11/04 06:31:04;;;;;;;;;;;;;;;21.10;60.98;99980.69;5065206;28;1552;-61
2022/11/04 06:33:31;;;;;;;;;;;;;;;21.10;60.90;99974.91;5065733;28;1929;-61
2022/11/04 06:36:02;;;;;;;;;;;;;;;21.11;61.16;99985.00;5065977;28;1922;-61
2022/11/04 06:38:29;;;;;;;;;;;;;;;21.13;60.97;99987.94;5067905;28;1618;-61
2022/11/04 06:40:55;;;;;;;;;;;;;;;21.12;61.16;99990.09;5068874;28;1635;-61
2022/11/04 06:43:22;;;;;;;;;;;;;;;21.13;60.98;99996.59;5061915;28;1537;-61
2022/11/04 06:45:52;;;;;;;;;;;;;;;21.12;60.98;99995.13;5064915;28;1644;-61
2022/11/04 06:48:18;;;;;;;;;;;;;;;21.12;61.24;100012.41;5065807;28;1733;-61
2022/11/04 06:50:44;;;;;;;;;;;;;;;21.11;60.88;100005.88;5066086;28;1533;-61
2022/11/04 06:53:11;;;;;;;;;;;;;;;21.11;61.04;100014.53;5064967;28;1660;-61
2022/11/04 06:55:37;;;;;;;;;;;;;;;21.12;61.20;100018.16;5063111;28;1581;-61
2022/11/04 06:58:03;;;;;;;;;;;;;;;21.11;60.92;100010.91;5065159;28;1910;-61
2022/11/04 07:00:30;;;;;;;;;;;;;;;21.12;61.07;100023.91;5061561;28;1724;-61
2022/11/04 07:02:56;;;;;;;;;;;;;;;21.11;61.02;100033.94;5062807;28;1548;-61
2022/11/04 07:05:22;;;;;;;;;;;;;;;21.12;61.29;100029.69;5063451;28;1902;-61
2022/11/04 07:07:49;;;;;;;;;;;;;;;21.11;61.29;100028.19;5064902;28;1623;-60
2022/11/04 07:10:16;;;;;;;;;;;;;;;21.11;61.10;100034.69;5062887;28;1604;-61
2022/11/04 07:12:42;;;;;;;;;;;;;;;21.15;61.28;100028.31;5062201;28;1672;-61
2022/11/04 07:15:08;;;;;;;;;;;;;;;21.16;61.05;100029.03;5064997;28;1616;-61
2022/11/04 07:17:35;;;;;;;;;;;;;;;21.15;60.99;100018.94;5058462;28;1957;-60
2022/11/04 07:20:01;;;;;;;;;;;;;;;21.16;60.95;100003.88;5063144;28;1640;-61
2022/11/04 07:22:28;;;;;;;;;;;;;;;21.16;61.12;100006.75;5064423;28;1588;-61
2022/11/04 07:24:54;;;;;;;;;;;;;;;21.17;60.94;100007.50;5063444;28;1731;-61
2022/11/04 07:27:20;;;;;;;;;;;;;;;21.17;61.02;100014.00;5058429;28;1681;-61
2022/11/04 07:29:47;;;;;;;;;;;;;;;21.16;61.09;100006.75;5063127;28;1656;-61
2022/11/04 07:32:13;;;;;;;;;;;;;;;21.16;61.00;100021.13;5066453;28;1635;-61
2022/11/04 07:34:39;;;;;;;;;;;;;;;21.15;61.28;100022.56;5070466;28;1552;-60
2022/11/04 07:37:06;;;;;;;;;;;;;;;21.15;61.00;100016.81;5069287;28;1977;-60
2022/11/04 07:39:32;;;;;;;;;;;;;;;21.15;61.05;100011.03;5067718;28;1649;-61
2022/11/04 07:41:58;;;;;;;;;;;;;;;21.15;61.25;100011.03;5071089;28;1627;-60
2022/11/04 07:44:25;;;;;;;;;;;;;;;21.15;61.20;100011.03;5067669;28;1592;-61
2022/11/04 07:46:51;;;;;;;;;;;;;;;21.16;61.20;100012.50;5071154;28;1927;-60
2022/11/04 07:49:17;;;;;;;;;;;;;;;21.16;61.06;100009.63;5071440;28;1691;-61
2022/11/04 07:51:44;;;;;;;;;;;;;;;21.19;61.11;100008.28;5069638;28;1609;-61
2022/11/04 07:54:10;;;;;;;;;;;;;;;21.20;60.98;100014.78;5070134;28;1536;-61
2022/11/04 07:56:36;;;;;;;;;;;;;;;21.20;61.08;100009.75;5070649;28;1963;-61
2022/11/04 07:59:06;;;;;;;;;;;;;;;21.20;60.96;100004.00;5073363;28;1544;-61
2022/11/04 08:01:32;;;;;;;;;;;;;;;21.19;61.03;99998.91;5071606;28;1615;-61
2022/11/04 08:03:59;;;;;;;;;;;;;;;21.20;60.99;100006.88;5070559;28;1551;-61
2022/11/04 08:06:25;;;;;;;;;;;;;;;21.19;61.16;99999.66;5071827;28;1876;-61
2022/11/04 08:08:52;;;;;;;;;;;;;;;21.20;61.06;99992.47;5072506;28;1672;-61
2022/11/04 08:11:20;;;;;;;;;;;;;;;21.18;60.94;99992.41;5071662;28;1631;-61
2022/11/04 08:13:46;;;;;;;;;;;;;;;21.18;61.38;99992.41;5071479;28;1719;-60
2022/11/04 08:16:14;;;;;;;;;;;;;;;21.16;61.31;99995.22;5071223;28;1650;-61
2022/11/04 08:18:40;;;;;;;;;;;;;;;21.17;61.26;99985.19;5071531;28;1906;-60
2022/11/04 08:21:06;;;;;;;;;;;;;;;21.16;61.34;99989.47;5069659;28;1580;-61
2022/11/04 08:23:33;;;;;;;;;;;;;;;21.16;61.33;100003.88;5070781;28;1852;-60
2022/11/04 08:25:59;;;;;;;;;;;;;;;21.15;61.27;100013.91;5069948;28;1723;-61
2022/11/04 08:28:26;;;;;;;;;;;;;;;21.15;61.42;100021.84;5072217;28;1791;-61
2022/11/04 08:31:00;;;;;;;;;;;;;;;21.13;61.25;100028.25;5072034;28;1605;-60
2022/11/04 08:33:26;;;;;;;;;;;;;;;21.12;61.45;100041.19;5070414;28;1560;-61
2022/11/04 08:35:53;;;;;;;;;;;;;;;21.12;61.32;100044.06;5070943;28;1770;-60
2022/11/04 08:38:19;;;;;;;;;;;;;;;21.12;61.47;100041.19;5069139;28;1953;-61
2022/11/04 08:40:45;;;;;;;;;;;;;;;21.10;61.46;100044.72;5070694;28;1785;-61
2022/11/04 08:43:12;;;;;;;;;;;;;;;21.09;61.40;100042.50;5067564;28;1638;-61
2022/11/04 08:45:39;;;;;;;;;;;;;;;21.07;61.51;100046.09;5069481;28;1655;-60
2022/11/04 08:48:05;;;;;;;;;;;;;;;21.08;61.45;100043.94;5071983;28;1742;-61
2022/11/04 08:50:32;;;;;;;;;;;;;;;21.08;61.62;100046.81;5071184;28;1892;-60
2022/11/04 08:52:58;;;;;;;;;;;;;;;21.09;61.51;100039.63;5073894;28;1584;-60
2022/11/04 08:55:27;;;;;;;;;;;;;;;21.06;61.51;100050.38;5073840;28;1794;-61
2022/11/04 08:57:53;;;;;;;;;;;;;;;21.06;61.41;100044.59;5073578;28;1979;-61
2022/11/04 09:00:19;;;;;;;;;;;;;;;21.06;61.37;100041.72;5073082;28;1897;-61
2022/11/04 09:02:46;;;;;;;;;;;;;;;21.07;61.34;100040.34;5070443;28;1601;-60
2022/11/04 09:05:13;;;;;;;;;;;;;;;21.05;61.42;100046.03;5068903;28;1530;-61
2022/11/04 09:07:40;;;;;;;;;;;;;;;21.05;61.50;100051.03;5069814;28;1580;-61
2022/11/04 09:10:07;;;;;;;;;;;;;;;21.04;61.41;100053.16;5072956;28;1669;-61
2022/11/04 09:12:34;;;;;;;;;;;;;;;21.04;61.64;100046.69;5073489;28;1928;-61
2022/11/04 09:15:00;;;;;;;;;;;;;;;21.05;61.68;100048.16;5074071;28;1552;-61
2022/11/04 09:17:27;;;;;;;;;;;;;;;21.04;61.35;100049.56;5070674;28;1969;-61
2022/11/04 09:19:53;;;;;;;;;;;;;;;21.04;61.37;100043.81;5073366;28;1695;-61
2022/11/04 09:22:19;;;;;;;;;;;;;;;21.03;61.55;100042.34;5072034;28;1690;-61
2022/11/04 09:24:46;;;;;;;;;;;;;;;21.00;61.47;100040.81;5070845;28;1762;-61
2022/11/04 09:27:12;;;;;;;;;;;;;;;21.00;61.38;100024.25;5071526;28;1652;-61
2022/11/04 09:29:39;;;;;;;;;;;;;;;21.00;61.66;100029.28;5073930;28;1778;-60
2022/11/04 09:32:06;;;;;;;;;;;;;;;21.02;61.48;100026.47;5072918;28;1557;-61
2022/11/04 09:34:32;;;;;;;;;;;;;;;21.01;61.62;100025.00;5071581;28;1806;-61
2022/11/04 09:36:59;;;;;;;;;;;;;;;21.01;61.30;100033.66;5071565;28;1973;-60
2022/11/04 09:39:25;;;;;;;;;;;;;;;21.01;61.38;100030.78;5069753;28;1579;-61
2022/11/04 09:41:55;;;;;;;;;;;;;;;20.98;61.37;100023.47;5069391;28;1766;-61
2022/11/04 09:44:26;;;;;;;;;;;;;;;20.99;61.51;100004.81;5071270;28;1833;-61
2022/11/04 09:46:53;;;;;;;;;;;;;;;20.99;61.45;100014.16;5068762;28;1642;-61
2022/11/04 09:49:19;;;;;;;;;;;;;;;21.02;61.35;100014.97;5071898;28;1730;-61
2022/11/04 09:51:46;;;;;;;;;;;;;;;21.04;61.13;100017.91;5064849;28;3187;-61
2022/11/04 09:54:24;;;;;;;;;;;;;;;21.03;61.23;100011.41;5072333;28;1822;-61
2022/11/04 09:56:50;;;;;;;;;;;;;;;21.05;61.27;100007.84;5069079;28;3052;-61
2022/11/04 09:59:22;;;;;;;;;;;;;;;21.07;60.98;100017.31;5069324;28;1603;-61
2022/11/04 10:01:51;;;;;;;;;;;;;;;21.08;61.01;100029.53;5067975;28;2573;-61
2022/11/04 10:04:21;;;;;;;;;;;;;;;21.11;61.03;100045.47;5071962;28;1980;-61
2022/11/04 10:07:05;;;;;;;;;;;;;;;21.11;61.00;100063.47;5071815;28;2101;-61
2022/11/04 10:09:34;;;;;;;;;;;;;;;21.11;60.99;100062.72;5071459;28;2040;-61
2022/11/04 10:12:04;;;;;;;;;;;;;;;21.11;61.07;100063.47;5073475;28;1809;-61
2022/11/04 10:14:56;;;;;;;;;;;;;;;21.12;60.84;100064.94;5074275;28;1523;-61
2022/11/04 10:17:33;;;;;;;;;;;;;;;21.11;61.06;100056.97;5050122;28;2937;-61
2022/11/04 10:20:02;;;;;;;;;;;;;;;21.12;61.10;100055.59;5070703;28;2900;-61
2022/11/04 10:22:33;;;;;;;;;;;;;;;21.11;61.24;100046.19;5071490;28;1699;-61
2022/11/04 10:25:21;;;;;;;;;;;;;;;21.12;61.18;100046.94;5073978;28;1613;-61
2022/11/04 10:27:47;;;;;;;;;;;;;;;21.11;61.16;100048.34;5069227;28;3333;-61
2022/11/04 10:30:18;;;;;;;;;;;;;;;21.11;61.41;100051.22;5069678;28;2768;-61
2022/11/04 10:33:00;;;;;;;;;;;;;;;21.10;61.43;100052.63;5067917;28;2835;-61
2022/11/04 10:35:37;;;;;;;;;;;;;;;21.11;61.36;100056.97;5068330;28;2964;-61
2022/11/04 10:38:29;;;;;;;;;;;;;;;21.12;61.11;100069.97;5069333;28;2607;-61
2022/11/04 10:40:56;;;;;;;;;;;;;;;21.15;61.30;100074.38;5051185;28;3001;-61
2022/11/04 10:43:28;;;;;;;;;;;;;;;21.16;61.20;100078.72;5066153;28;2902;-61
2022/11/04 10:46:00;;;;;;;;;;;;;;;21.16;61.03;100081.59;5069339;28;2870;-61
2022/11/04 10:48:28;;;;;;;;;;;;;;;21.17;60.94;100088.84;5071443;28;2976;-61
2022/11/04 10:50:55;;;;;;;;;;;;;;;21.17;61.15;100091.72;5072556;28;1628;-61
2022/11/04 10:53:28;;;;;;;;;;;;;;;21.16;61.16;100095.25;5068154;28;2885;-61
2022/11/04 10:56:02;;;;;;;;;;;;;;;21.18;61.18;100087.41;5064206;28;2958;-61
2022/11/04 10:58:34;;;;;;;;;;;;;;;21.18;61.28;100084.53;5047425;28;1937;-61
2022/11/04 11:01:20;;;;;;;;;;;;;;;21.18;61.34;100084.53;5055835;28;2923;-61
2022/11/04 11:03:47;;;;;;;;;;;;;;;21.16;61.25;100081.59;5066583;28;3036;-61
2022/11/04 11:06:22;;;;;;;;;;;;;;;21.16;61.13;100087.34;5078706;28;1639;-61
2022/11/04 11:08:49;;;;;;;;;;;;;;;21.15;61.57;100100.28;5067135;28;2865;-62
2022/11/04 11:11:15;;;;;;;;;;;;;;;21.15;61.74;100103.16;5079871;28;1556;-62
2022/11/04 11:13:42;;;;;;;;;;;;;;;21.16;61.72;100103.91;5079726;28;1588;-62
2022/11/04 11:16:18;;;;;;;;;;;;;;;21.18;62.24;100113.31;5075481;28;1782;-63
2022/11/04 11:18:49;;;;;;;;;;;;;;;21.22;62.57;100118.50;5078237;28;2575;-61
2022/11/04 11:21:20;;;;;;;;;;;;;;;21.20;62.46;100133.53;5080456;28;1672;-61
2022/11/04 11:23:47;;;;;;;;;;;;;;;21.18;62.43;100138.50;5078288;28;1932;-62
2022/11/04 11:26:17;;;;;;;;;;;;;;;21.18;62.25;100138.50;5083773;28;1571;-61
2022/11/04 11:28:47;;;;;;;;;;;;;;;21.18;62.11;100141.38;5076885;28;2911;-62
2022/11/04 11:31:22;;;;;;;;;;;;;;;21.18;61.97;100145.00;5081550;28;2909;-64
2022/11/04 11:33:49;;;;;;;;;;;;;;;21.20;62.64;100145.06;5083933;28;1528;-62
2022/11/04 11:36:20;;;;;;;;;;;;;;;21.21;62.36;100149.44;5079320;28;3015;-62
2022/11/04 11:38:52;;;;;;;;;;;;;;;21.23;62.75;100149.47;5080072;28;2748;-62
2022/11/04 11:41:22;;;;;;;;;;;;;;;21.23;62.84;100149.47;5080445;28;2873;-62
2022/11/04 11:43:51;;;;;;;;;;;;;;;21.26;63.00;100139.50;5066039;28;2740;-61
2022/11/04 11:46:21;;;;;;;;;;;;;;;21.33;63.21;100144.03;5066095;28;1790;-61
2022/11/04 11:48:51;;;;;;;;;;;;;;;21.30;63.21;100139.63;5066584;28;2861;-61
2022/11/04 11:51:25;;;;;;;;;;;;;;;21.27;63.51;100120.81;5079796;28;1739;-62
2022/11/04 11:54:08;;;;;;;;;;;;;;;21.26;63.31;100116.47;5066763;28;2933;-61
2022/11/04 11:56:55;;;;;;;;;;;;;;;21.26;63.66;100115.75;5064182;28;2970;-61
2022/11/04 11:59:43;;;;;;;;;;;;;;;21.25;63.88;100120.75;5068436;28;2426;-61
2022/11/04 12:02:43;;;;;;;;;;;;;;;21.26;63.97;100125.09;5070365;28;2869;-61
2022/11/04 12:05:10;;;;;;;;;;;;;;;21.26;63.80;100125.09;5070921;28;3061;-61
2022/11/04 12:07:59;;;;;;;;;;;;;;;21.26;64.02;100130.13;5068476;28;2879;-61
2022/11/04 12:10:55;;;;;;;;;;;;;;;21.26;64.30;100128.00;5062217;28;2950;-60
2022/11/04 12:13:27;;;;;;;;;;;;;;;21.26;64.63;100130.88;5065249;28;2931;-61
2022/11/04 12:16:02;;;;;;;;;;;;;;;21.26;64.23;100136.63;5065804;28;2867;-61
2022/11/04 12:18:46;;;;;;;;;;;;;;;21.29;64.02;100125.91;5066874;28;2354;-61
2022/11/04 12:21:14;;;;;;;;;;;;;;;21.30;64.05;100124.47;5069363;28;2355;-61
2022/11/04 12:23:44;;;;;;;;;;;;;;;21.31;63.66;100132.47;5071542;28;1624;-61
2022/11/04 12:26:29;;;;;;;;;;;;;;;21.30;63.46;100125.25;5069287;28;1692;-61
2022/11/04 12:29:01;;;;;;;;;;;;;;;21.33;63.60;100118.13;5072890;28;1503;-61
2022/11/04 12:31:28;;;;;;;;;;;;;;;21.31;63.90;100123.81;5062273;28;3006;-61
2022/11/04 12:33:58;;;;;;;;;;;;;;;21.34;63.37;100115.97;5069330;28;1613;-61
2022/11/04 12:36:43;;;;;;;;;;;;;;;21.33;63.65;100123.16;5069316;28;1730;-61
2022/11/04 12:39:12;;;;;;;;;;;;;;;21.34;63.54;100125.34;5068967;28;1927;-61
2022/11/04 12:41:41;;;;;;;;;;;;;;;21.33;63.89;100135.41;5071067;28;1807;-61
2022/11/04 12:44:36;;;;;;;;;;;;;;;21.33;63.66;100123.88;5067380;28;2837;-61
2022/11/04 12:47:06;;;;;;;;;;;;;;;21.32;63.52;100131.03;5068330;28;2932;-61
2022/11/04 12:49:44;;;;;;;;;;;;;;;21.32;63.40;100148.31;5066200;28;3332;-61
2022/11/04 12:52:20;;;;;;;;;;;;;;;21.31;63.78;100132.47;5066475;28;3391;-62
2022/11/04 12:54:52;;;;;;;;;;;;;;;21.30;63.83;100148.28;5066471;28;3110;-61
2022/11/04 12:57:34;;;;;;;;;;;;;;;21.30;63.39;100147.53;5069044;28;2940;-61
2022/11/04 13:00:07;;;;;;;;;;;;;;;21.31;63.68;100149.75;5072790;28;1930;-61
2022/11/04 13:02:44;;;;;;;;;;;;;;;21.31;63.24;100143.97;5067461;28;2934;-64
2022/11/04 13:05:17;;;;;;;;;;;;;;;21.29;63.09;100152.53;5069184;28;3334;-61
2022/11/04 13:07:45;;;;;;;;;;;;;;;21.28;63.48;100156.84;5071090;28;2899;-61
2022/11/04 13:10:17;;;;;;;;;;;;;;;21.28;63.53;100162.59;5069178;28;3073;-61
2022/11/04 13:12:44;;;;;;;;;;;;;;;21.27;63.40;100161.13;5060310;28;3068;-61
2022/11/04 13:15:13;;;;;;;;;;;;;;;21.28;63.74;100161.84;5067371;28;2759;-61
2022/11/04 13:17:39;;;;;;;;;;;;;;;21.27;63.82;100169.75;5063450;28;3243;-61
2022/11/04 13:20:12;;;;;;;;;;;;;;;21.26;64.24;100165.41;5067657;28;2923;-61
2022/11/04 13:22:40;;;;;;;;;;;;;;;21.26;64.34;100171.19;5067236;28;3012;-61
2022/11/04 13:25:14;;;;;;;;;;;;;;;21.26;64.51;100165.41;5066498;28;2916;-61
2022/11/04 13:27:43;;;;;;;;;;;;;;;21.24;64.33;100167.50;5069585;28;1748;-60
2022/11/04 13:30:28;;;;;;;;;;;;;;;21.24;64.35;100174.00;5067977;28;2821;-61
2022/11/04 13:33:07;;;;;;;;;;;;;;;21.22;64.63;100176.81;5069871;28;2965;-60